Time;durP1;ratioP1;P1;durP2;ratioP2;P2;SDS_P1;SDS_P2;PMS_P1;PMS_P2;Temp;Humidity;BMP_temperature;BMP_pressure;BME280_temperature;BME280_humidity;BME280_pressure;Samples;Min_cycle;Max_cycle;Signal;HPM_P1;HPM_P2
2022/10/13 00:00:45;;;;;;;36.80;18.58;;;;;;;15.75;100.00;101124.91;4923796;29;20103;-85
2022/10/13 00:03:12;;;;;;;32.17;18.65;;;;;;;15.56;100.00;101114.75;4925409;29;20044;-85
2022/10/13 00:05:44;;;;;;;34.90;19.70;;;;;;;15.49;100.00;101124.47;4922242;29;20651;-86
2022/10/13 00:08:10;;;;;;;31.80;19.27;;;;;;;15.54;100.00;101122.13;4923528;29;20453;-86
2022/10/13 00:10:41;;;;;;;37.38;20.67;;;;;;;15.37;100.00;101125.88;4921731;29;20040;-86
2022/10/13 00:13:07;;;;;;;36.42;19.85;;;;;;;15.37;100.00;101121.38;4926902;29;20036;-86
2022/10/13 00:15:41;;;;;;;34.38;19.33;;;;;;;15.47;100.00;101115.78;4928742;29;20051;-85
2022/10/13 00:18:07;;;;;;;37.63;19.65;;;;;;;15.66;100.00;101126.00;5161671;23;20055;-87
2022/10/13 00:20:34;;;;;;;34.15;20.05;;;;;;;15.66;100.00;101120.66;4939142;29;20044;-89
2022/10/13 00:23:00;;;;;;;35.17;18.83;;;;;;;15.81;100.00;101124.19;4941124;29;20148;-88
2022/10/13 00:25:25;;;;;;;36.70;19.10;;;;;;;15.65;100.00;101121.66;4942252;29;20072;-87
2022/10/13 00:31:24;;;;;;;42.60;22.17;;;;;;;15.31;100.00;101121.25;4961618;29;20040;-84
2022/10/13 00:33:51;;;;;;;35.88;21.02;;;;;;;15.30;100.00;101125.78;4947844;29;20062;-87
2022/10/13 00:36:20;;;;;;;34.53;19.50;;;;;;;15.52;100.00;101126.78;4942106;29;20118;-86
2022/10/13 00:38:48;;;;;;;36.85;20.38;;;;;;;15.47;100.00;101121.97;4942074;29;20189;-86
2022/10/13 00:41:18;;;;;;;32.35;19.65;;;;;;;15.64;100.00;101116.53;4941899;29;20035;-86
2022/10/13 00:43:49;;;;;;;32.72;19.90;;;;;;;15.72;100.00;101119.94;4941601;29;20036;-87
2022/10/13 00:46:16;;;;;;;42.92;19.88;;;;;;;15.67;100.00;101121.50;4944698;29;20052;-84
2022/10/13 00:48:46;;;;;;;34.67;18.27;;;;;;;15.71;100.00;101112.13;4940991;29;20055;-86
2022/10/13 00:51:15;;;;;;;36.88;20.10;;;;;;;15.56;100.00;101113.91;4942262;29;20478;-85
2022/10/13 00:53:43;;;;;;;32.60;18.88;;;;;;;15.54;100.00;101113.25;4942705;29;20050;-86
2022/10/13 00:56:11;;;;;;;38.22;21.02;;;;;;;15.33;100.00;101116.56;4944033;29;20082;-86
2022/10/13 00:58:39;;;;;;;38.97;19.67;;;;;;;15.03;100.00;101110.25;4945765;29;20036;-86
2022/10/13 01:01:06;;;;;;;38.85;21.40;;;;;;;14.99;100.00;101109.78;4946953;29;20040;-89
2022/10/13 01:03:32;;;;;;;44.00;21.00;;;;;;;14.84;100.00;101105.38;4952966;29;20099;-88
2022/10/13 01:06:05;;;;;;;36.38;21.13;;;;;;;14.88;100.00;101101.34;4954876;29;20031;-85
2022/10/13 01:08:31;;;;;;;41.95;21.83;;;;;;;14.76;100.00;101105.41;4946884;29;20032;-87
2022/10/13 01:14:18;;;;;;;43.58;20.98;;;;;;;14.77;100.00;101104.41;4966245;23;20517;-86
2022/10/13 01:16:57;;;;;;;40.47;21.58;;;;;;;14.71;100.00;101097.09;4896927;29;20111;-86
2022/10/13 01:19:48;;;;;;;43.28;21.77;;;;;;;14.71;100.00;101097.94;4919170;29;20036;-90
2022/10/13 01:22:25;;;;;;;38.42;22.23;;;;;;;14.72;100.00;101088.91;4927357;29;20088;-85
2022/10/13 01:25:03;;;;;;;41.85;21.25;;;;;;;14.80;100.00;101086.22;4928298;29;20032;-84
2022/10/13 01:27:38;;;;;;;43.08;21.02;;;;;;;14.73;100.00;101079.06;4923535;29;20032;-87
2022/10/13 01:30:18;;;;;;;39.60;22.75;;;;;;;14.66;100.00;101089.63;4918859;29;20553;-85
2022/10/13 01:33:11;;;;;;;40.63;22.50;;;;;;;14.63;100.00;101081.13;4918197;29;20120;-87
2022/10/13 01:36:03;;;;;;;38.75;22.25;;;;;;;14.70;100.00;101085.59;4918837;29;20067;-86
2022/10/13 01:38:38;;;;;;;45.00;23.33;;;;;;;14.77;100.00;101075.91;4918264;29;20119;-86
2022/10/13 01:41:45;;;;;;;42.92;22.45;;;;;;;14.76;100.00;101076.88;4918319;29;20036;-86
2022/10/13 01:44:24;;;;;;;52.40;22.30;;;;;;;14.59;100.00;101072.63;4878381;29;20406;-85
2022/10/13 01:46:53;;;;;;;40.88;22.08;;;;;;;14.52;100.00;101073.53;4862868;29;20048;-85
2022/10/13 01:49:23;;;;;;;38.00;22.20;;;;;;;14.50;100.00;101076.38;4878309;29;20587;-86
2022/10/13 01:51:50;;;;;;;50.42;22.80;;;;;;;14.59;100.00;101072.63;4879103;29;20068;-85
2022/10/13 01:54:16;;;;;;;33.20;20.52;;;;;;;14.70;100.00;101064.25;4878648;29;20096;-85
2022/10/13 01:56:50;;;;;;;41.97;21.30;;;;;;;14.83;100.00;101069.00;4862942;29;20100;-85
2022/10/13 01:59:15;;;;;;;43.85;21.67;;;;;;;14.76;100.00;101058.22;4899103;29;20071;-86
2022/10/13 02:02:07;;;;;;;40.88;20.40;;;;;;;14.74;100.00;101065.56;4917804;29;20036;-85
2022/10/13 02:04:38;;;;;;;43.85;22.02;;;;;;;14.60;100.00;101063.66;4917673;29;20126;-85
2022/10/13 02:07:16;;;;;;;38.60;23.33;;;;;;;14.31;100.00;101055.41;4917776;29;20036;-85
2022/10/13 02:10:02;;;;;;;49.83;23.88;;;;;;;14.22;100.00;101048.47;4917829;29;20039;-85
2022/10/13 02:12:44;;;;;;;49.35;23.33;;;;;;;14.10;100.00;101056.00;4918729;29;20048;-84
2022/10/13 02:15:14;;;;;;;38.53;22.80;;;;;;;14.22;100.00;101053.81;4936845;29;20466;-84
2022/10/13 02:17:40;;;;;;;41.13;22.35;;;;;;;14.42;100.00;101055.88;4918806;29;20036;-85
2022/10/13 02:20:08;;;;;;;43.58;22.88;;;;;;;14.19;100.00;101064.78;4918476;29;20144;-86
2022/10/13 02:22:39;;;;;;;43.50;22.52;;;;;;;14.06;100.00;101064.50;4920260;29;20091;-87
2022/10/13 02:25:06;;;;;;;41.38;22.77;;;;;;;14.06;100.00;101060.00;4918610;29;20063;-86
2022/10/13 02:27:32;;;;;;;40.00;22.15;;;;;;;14.14;100.00;101057.31;4917344;29;20051;-85
2022/10/13 02:29:58;;;;;;;39.90;21.15;;;;;;;14.31;100.00;101063.41;4917539;29;20028;-85
2022/10/13 02:32:28;;;;;;;34.42;20.70;;;;;;;14.26;100.00;101068.44;4917448;29;20067;-86
2022/10/13 02:34:56;;;;;;;46.22;21.50;;;;;;;14.20;100.00;101061.13;4915936;29;20114;-86
2022/10/13 02:37:24;;;;;;;38.97;22.30;;;;;;;14.24;100.00;101062.44;4917361;29;20094;-86
2022/10/13 02:39:50;;;;;;;41.28;22.67;;;;;;;14.18;100.00;101060.47;4916633;29;20040;-86
2022/10/13 02:42:17;;;;;;;38.05;19.67;;;;;;;14.21;100.00;101062.78;4917274;29;20048;-88
2022/10/13 02:44:43;;;;;;;37.78;20.88;;;;;;;14.37;100.00;101057.41;4923307;29;20040;-85
2022/10/13 02:47:09;;;;;;;37.78;20.33;;;;;;;14.52;100.00;101060.19;4918817;29;20044;-83
2022/10/13 02:49:34;;;;;;;43.13;21.67;;;;;;;14.47;100.00;101058.03;4917145;29;20028;-84
2022/10/13 02:52:00;;;;;;;39.92;22.02;;;;;;;14.49;100.00;101061.34;4917161;29;20039;-85
2022/10/13 02:54:25;;;;;;;37.47;20.63;;;;;;;14.44;100.00;101053.06;4919372;29;20040;-86
2022/10/13 02:56:51;;;;;;;40.05;20.17;;;;;;;14.22;100.00;101051.13;4917843;29;20051;-86
2022/10/13 02:59:16;;;;;;;31.15;18.77;;;;;;;14.36;100.00;101055.75;4923261;29;20119;-85
2022/10/13 03:01:43;;;;;;;32.10;19.30;;;;;;;14.49;100.00;101056.03;4916188;29;20084;-84
2022/10/13 03:04:09;;;;;;;40.35;20.92;;;;;;;14.21;100.00;101058.28;4919382;29;20072;-84
2022/10/13 03:06:35;;;;;;;37.92;20.08;;;;;;;13.96;100.00;101054.88;4926110;29;20036;-84
2022/10/13 03:09:01;;;;;;;32.38;19.77;;;;;;;13.87;100.00;101050.56;4924369;29;20553;-86
2022/10/13 03:11:27;;;;;;;41.45;20.33;;;;;;;13.77;100.00;101049.94;4920717;29;20032;-85
2022/10/13 03:13:53;;;;;;;35.25;19.60;;;;;;;13.73;100.00;101051.25;4920912;29;20524;-86
2022/10/13 03:16:19;;;;;;;42.30;21.48;;;;;;;13.78;100.00;101056.94;4920811;29;20040;-88
2022/10/13 03:18:44;;;;;;;37.22;19.98;;;;;;;13.91;100.00;101051.91;4921091;29;20047;-86
2022/10/13 03:21:10;;;;;;;44.47;21.83;;;;;;;13.73;100.00;101055.75;4921278;29;20040;-86
2022/10/13 03:23:38;;;;;;;40.65;21.50;;;;;;;13.72;100.00;101062.91;4922774;29;20092;-86
2022/10/13 03:26:03;;;;;;;45.10;20.88;;;;;;;13.74;100.00;101071.56;4919491;29;20048;-83
2022/10/13 03:28:29;;;;;;;44.83;21.00;;;;;;;13.65;100.00;101061.94;4920770;29;20040;-85
2022/10/13 03:31:13;;;;;;;36.05;20.02;;;;;;;13.78;100.00;101067.59;4920841;29;20044;-87
2022/10/13 03:33:39;;;;;;;36.72;19.63;;;;;;;14.06;100.00;101065.31;4920672;29;20047;-87
2022/10/13 03:36:06;;;;;;;38.75;20.70;;;;;;;14.08;100.00;101067.84;4920713;29;20447;-85
2022/10/13 03:38:34;;;;;;;31.80;18.88;;;;;;;14.15;100.00;101060.81;4919239;29;20046;-85
2022/10/13 03:41:08;;;;;;;33.53;19.40;;;;;;;14.17;100.00;101066.81;4919183;29;20530;-85
2022/10/13 03:43:34;;;;;;;39.05;20.55;;;;;;;13.92;100.00;101063.38;4922116;29;20411;-85
2022/10/13 03:46:01;;;;;;;34.17;18.63;;;;;;;14.01;100.00;101057.03;4925267;29;20051;-84
2022/10/13 03:48:27;;;;;;;39.08;19.65;;;;;;;13.85;100.00;101057.88;4920049;29;20457;-86
2022/10/13 03:50:53;;;;;;;35.30;19.67;;;;;;;13.89;100.00;101064.53;4918735;29;20032;-85
2022/10/13 03:53:19;;;;;;;34.67;18.95;;;;;;;13.76;100.00;101064.25;4919864;29;20394;-85
2022/10/13 03:55:49;;;;;;;39.05;20.15;;;;;;;13.57;100.00;101066.44;4921322;29;20047;-86
2022/10/13 03:58:15;;;;;;;38.95;20.20;;;;;;;13.52;100.00;101061.63;4941199;29;20036;-84
2022/10/13 04:00:41;;;;;;;37.00;20.02;;;;;;;13.42;100.00;101071.63;4920767;29;20032;-86
2022/10/13 04:03:06;;;;;;;40.83;21.45;;;;;;;13.38;100.00;101071.13;4937880;29;20118;-85
2022/10/13 04:05:35;;;;;;;44.17;20.50;;;;;;;13.31;100.00;101066.63;4938910;29;20035;-86
2022/10/13 04:08:00;;;;;;;42.38;22.45;;;;;;;13.25;100.00;101060.13;4937850;29;20075;-86
2022/10/13 04:10:26;;;;;;;45.13;22.63;;;;;;;13.36;100.00;101057.13;4938981;29;20028;-87
2022/10/13 04:12:52;;;;;;;40.55;21.42;;;;;;;13.49;100.00;101061.13;4938516;29;20090;-88
2022/10/13 04:15:18;;;;;;;37.53;21.27;;;;;;;13.70;100.00;101056.94;4921903;29;20135;-87
2022/10/13 04:17:43;;;;;;;42.70;22.48;;;;;;;13.57;100.00;101051.28;4938553;29;20043;-85
2022/10/13 04:20:10;;;;;;;46.25;21.52;;;;;;;13.63;100.00;101047.94;4939329;29;20062;-87
2022/10/13 04:22:36;;;;;;;38.22;21.08;;;;;;;13.58;100.00;101050.31;4937644;29;20179;-86
2022/10/13 04:25:03;;;;;;;45.03;21.80;;;;;;;13.47;100.00;101042.66;4939042;29;20036;-86
2022/10/13 04:27:29;;;;;;;40.15;21.30;;;;;;;13.40;100.00;101037.16;4938677;29;20036;-87
2022/10/13 04:29:55;;;;;;;42.63;21.17;;;;;;;13.36;100.00;101040.31;4938803;29;20059;-86
2022/10/13 04:32:21;;;;;;;38.58;22.33;;;;;;;13.30;100.00;101030.34;4938959;29;20039;-86
2022/10/13 04:34:46;;;;;;;51.20;22.73;;;;;;;13.39;100.00;101024.84;4937552;29;20047;-88
2022/10/13 04:37:12;;;;;;;40.65;23.02;;;;;;;13.54;100.00;101019.66;4938747;29;20039;-89
2022/10/13 04:39:37;;;;;;;53.20;23.67;;;;;;;13.54;100.00;101017.00;4941218;29;20043;-86
2022/10/13 04:42:04;;;;;;;40.33;22.65;;;;;;;13.50;100.00;101014.84;4940793;29;20063;-86
2022/10/13 04:44:29;;;;;;;43.92;24.40;;;;;;;13.18;100.00;101007.72;4939193;29;20659;-88
2022/10/13 04:46:56;;;;;;;52.70;25.50;;;;;;;12.91;100.00;101008.84;4938840;29;20036;-87
2022/10/13 04:49:22;;;;;;;51.25;25.55;;;;;;;12.85;100.00;101005.03;4938735;29;20039;-86
2022/10/13 04:51:48;;;;;;;45.58;25.40;;;;;;;12.77;100.00;100997.03;4939906;29;20497;-85
2022/10/13 04:54:13;;;;;;;46.45;25.10;;;;;;;12.81;100.00;100993.06;4938974;29;20043;-85
2022/10/13 04:56:39;;;;;;;44.28;26.75;;;;;;;12.61;100.00;100986.38;4937070;29;20035;-83
2022/10/13 04:59:05;;;;;;;58.30;29.00;;;;;;;12.44;100.00;100982.84;4919467;29;20039;-85
2022/10/13 05:01:31;;;;;;;57.38;30.08;;;;;;;12.33;100.00;100979.66;4918895;29;20028;-85
2022/10/13 05:03:59;;;;;;;63.90;32.00;;;;;;;12.29;100.00;100981.00;4920588;29;20039;-88
2022/10/13 05:06:28;;;;;;;60.72;30.48;;;;;;;12.29;100.00;100978.34;4922221;29;20100;-85
2022/10/13 05:08:56;;;;;;;64.70;31.08;;;;;;;12.26;100.00;100979.47;4923009;29;20028;-85
2022/10/13 05:11:23;;;;;;;65.57;31.92;;;;;;;12.29;100.00;100979.19;4917326;29;20039;-85
2022/10/13 05:13:48;;;;;;;59.92;30.27;;;;;;;12.39;100.00;100984.34;4918391;29;20585;-86
2022/10/13 05:16:16;;;;;;;56.58;30.17;;;;;;;12.41;100.00;100979.69;4919228;29;20119;-88
2022/10/13 05:18:42;;;;;;;60.67;31.80;;;;;;;12.38;100.00;100974.69;4918145;29;20044;-86
2022/10/13 05:21:27;;;;;;;59.30;31.38;;;;;;;12.45;100.00;100970.41;4919445;29;20565;-90
2022/10/13 05:23:54;;;;;;;58.08;31.42;;;;;;;12.46;100.00;100982.72;4919412;29;20028;-87
2022/10/13 05:26:22;;;;;;;67.53;31.65;;;;;;;12.44;100.00;100982.00;4922514;29;20058;-91
2022/10/13 05:28:58;;;;;;;63.00;33.13;;;;;;;12.46;100.00;100989.84;4923030;29;20036;-90
2022/10/13 05:31:29;;;;;;;55.03;30.67;;;;;;;12.66;100.00;100984.03;4891693;29;20036;-92
2022/10/13 05:33:56;;;;;;;66.10;32.83;;;;;;;12.74;100.00;100992.03;4925704;29;20079;-89
2022/10/13 05:36:31;;;;;;;52.90;30.92;;;;;;;12.90;100.00;100992.06;4923323;29;20036;-86
2022/10/13 05:38:59;;;;;;;59.70;29.95;;;;;;;12.94;100.00;100990.72;4923804;29;20028;-86
2022/10/13 05:41:26;;;;;;;57.17;29.88;;;;;;;13.10;100.00;100997.91;4946524;29;20135;-87
2022/10/13 05:44:05;;;;;;;55.60;30.08;;;;;;;13.17;100.00;101003.41;4940749;29;20115;-88
2022/10/13 05:46:31;;;;;;;65.32;31.02;;;;;;;13.05;100.00;101002.03;4939662;29;20036;-86
2022/10/13 05:48:56;;;;;;;61.70;29.75;;;;;;;13.01;100.00;101008.69;4923539;29;20083;-87
2022/10/13 05:51:29;;;;;;;60.17;29.52;;;;;;;13.02;100.00;101010.38;4941193;29;20044;-83
2022/10/13 05:54:08;;;;;;;65.32;30.20;;;;;;;13.11;100.00;101004.91;4943393;29;20048;-85
2022/10/13 05:56:40;;;;;;;62.30;29.85;;;;;;;13.20;100.00;101009.22;4951855;29;20059;-83
2022/10/13 05:59:09;;;;;;;57.55;28.80;;;;;;;13.19;100.00;101028.03;4929787;29;20363;-85
2022/10/13 06:01:38;;;;;;;51.88;27.90;;;;;;;13.20;100.00;101021.69;4920738;29;20020;-85
2022/10/13 06:04:09;;;;;;;53.20;28.90;;;;;;;13.44;100.00;101016.34;4910962;29;20068;-87
2022/10/13 06:06:35;;;;;;;60.70;28.73;;;;;;;13.45;100.00;101018.03;4914068;29;20401;-83
2022/10/13 06:09:00;;;;;;;49.65;25.98;;;;;;;13.47;100.00;101018.69;4908464;29;20042;-87
2022/10/13 06:11:26;;;;;;;55.53;26.15;;;;;;;13.51;100.00;101016.50;4917132;29;20032;-86
2022/10/13 06:13:52;;;;;;;51.92;26.35;;;;;;;14.09;100.00;101018.84;4911873;29;20041;-83
2022/10/13 06:16:18;;;;;;;44.55;25.02;;;;;;;14.48;100.00;101022.38;4911543;29;20032;-84
2022/10/13 06:18:43;;;;;;;53.33;25.85;;;;;;;14.58;100.00;101023.00;4914424;29;20060;-89
2022/10/13 06:21:09;;;;;;;50.22;25.67;;;;;;;14.51;100.00;101027.34;4914046;29;20032;-86
2022/10/13 06:23:34;;;;;;;47.70;23.50;;;;;;;14.30;100.00;101027.09;4913142;29;20040;-84
2022/10/13 06:26:01;;;;;;;41.88;21.98;;;;;;;14.32;100.00;101033.06;4908710;29;20123;-86
2022/10/13 06:28:28;;;;;;;52.22;22.55;;;;;;;14.29;100.00;101033.41;4910945;29;20080;-83
2022/10/13 06:30:55;;;;;;;41.80;22.45;;;;;;;14.33;100.00;101037.41;4914306;29;20032;-85
2022/10/13 06:33:23;;;;;;;47.80;21.30;;;;;;;14.68;100.00;101036.91;4912044;29;20055;-85
2022/10/13 06:35:52;;;;;;;45.55;21.73;;;;;;;14.63;100.00;101036.63;4917905;29;20036;-85
2022/10/13 06:38:18;;;;;;;44.38;21.83;;;;;;;14.76;100.00;101042.19;4909908;29;20367;-87
2022/10/13 06:40:46;;;;;;;37.90;21.50;;;;;;;14.75;100.00;101035.19;4916656;29;20032;-82
2022/10/13 06:43:12;;;;;;;40.67;21.23;;;;;;;15.15;100.00;101039.41;4910796;29;20047;-82
2022/10/13 06:45:40;;;;;;;40.05;22.55;;;;;;;15.71;100.00;101038.09;4896516;29;20048;-83
2022/10/13 06:48:06;;;;;;;37.90;20.42;;;;;;;16.25;100.00;101045.84;4911274;29;20036;-84
2022/10/13 06:50:31;;;;;;;41.72;20.52;;;;;;;16.74;100.00;101049.56;4917217;29;20511;-83
2022/10/13 06:52:57;;;;;;;44.75;20.50;;;;;;;16.54;100.00;101043.94;4917343;29;20036;-86
2022/10/13 06:55:22;;;;;;;36.47;19.75;;;;;;;16.90;100.00;101057.34;4916621;29;20071;-84
2022/10/13 06:57:48;;;;;;;42.08;20.10;;;;;;;16.78;100.00;101048.16;4915489;29;20136;-83
2022/10/13 07:00:17;;;;;;;45.85;19.60;;;;;;;16.85;100.00;101043.72;4916693;29;20028;-84
2022/10/13 07:02:48;;;;;;;36.33;18.98;;;;;;;17.17;100.00;101046.94;4900416;29;20048;-84
2022/10/13 07:05:14;;;;;;;38.30;19.05;;;;;;;16.88;100.00;101054.03;4884946;29;20040;-85
2022/10/13 07:07:40;;;;;;;41.28;19.88;;;;;;;17.12;100.00;101057.38;4903273;29;20044;-85
2022/10/13 07:10:07;;;;;;;48.17;20.23;;;;;;;17.11;100.00;101045.81;4913073;29;20054;-87
2022/10/13 07:12:33;;;;;;;41.08;20.52;;;;;;;16.95;100.00;101051.44;4912173;29;20028;-86
2022/10/13 07:14:58;;;;;;;39.17;19.17;;;;;;;17.08;100.00;101042.69;4915410;29;20059;-87
2022/10/13 07:17:24;;;;;;;40.53;19.52;;;;;;;17.33;100.00;101057.38;4917259;29;20450;-87
2022/10/13 07:19:50;;;;;;;45.28;19.63;;;;;;;17.36;100.00;101062.34;4917019;29;20080;-87
2022/10/13 07:22:15;;;;;;;33.72;18.23;;;;;;;17.65;100.00;101064.88;4920924;29;20174;-86
2022/10/13 07:24:41;;;;;;;40.28;18.75;;;;;;;17.81;100.00;101064.56;4931196;29;20048;-83
2022/10/13 07:27:07;;;;;;;39.55;18.83;;;;;;;17.87;100.00;101077.19;4914505;29;20108;-88
2022/10/13 07:29:32;;;;;;;40.63;19.83;;;;;;;17.91;100.00;101089.19;4912603;29;20093;-88
2022/10/13 07:31:58;;;;;;;39.58;19.67;;;;;;;18.14;100.00;101088.09;4912901;29;20044;-89
2022/10/13 07:34:24;;;;;;;38.63;18.80;;;;;;;18.31;100.00;101092.13;4909978;29;20175;-91
2022/10/13 07:36:53;;;;;;;43.42;18.73;;;;;;;18.48;100.00;101096.97;4913505;29;20047;-89
2022/10/13 07:39:18;;;;;;;45.47;19.02;;;;;;;18.88;100.00;101097.97;4914012;29;20048;-88
2022/10/13 07:41:44;;;;;;;34.05;18.17;;;;;;;18.99;100.00;101104.63;4912660;29;20040;-87
2022/10/13 07:44:09;;;;;;;43.90;19.92;;;;;;;19.01;100.00;101100.69;4910910;29;20040;-88
2022/10/13 07:46:35;;;;;;;33.50;17.88;;;;;;;19.39;100.00;101095.56;4911997;29;20040;-87
2022/10/13 07:49:00;;;;;;;36.78;17.65;;;;;;;19.65;100.00;101089.44;4911289;29;20043;-88
2022/10/13 07:51:29;;;;;;;32.92;18.52;;;;;;;19.65;100.00;101094.81;4909691;29;20044;-90
2022/10/13 07:53:54;;;;;;;41.65;19.88;;;;;;;19.85;100.00;101098.28;4914560;29;20095;-87
2022/10/13 07:56:20;;;;;;;50.30;24.48;;;;;;;19.50;100.00;101107.63;4914896;29;20051;-88
2022/10/13 07:58:46;;;;;;;48.08;26.17;;;;;;;19.40;100.00;101101.78;4916308;29;20128;-89
2022/10/13 08:01:13;;;;;;;52.97;29.48;;;;;;;19.54;100.00;101103.50;4916167;29;20047;-86
2022/10/13 08:03:40;;;;;;;50.70;29.58;;;;;;;19.89;100.00;101088.78;4915658;29;20043;-86
2022/10/13 08:06:06;;;;;;;61.25;31.35;;;;;;;19.91;100.00;101094.78;4915230;29;20032;-89
2022/10/13 08:08:32;;;;;;;56.65;31.08;;;;;;;20.25;100.00;101084.78;4913512;29;20516;-87
2022/10/13 08:11:07;;;;;;;53.15;31.58;;;;;;;20.57;100.00;101091.94;4914334;29;20042;-89
2022/10/13 08:13:33;;;;;;;57.47;31.52;;;;;;;20.67;100.00;101092.31;4914853;29;20041;-91
2022/10/13 08:16:09;;;;;;;53.53;31.02;;;;;;;20.40;100.00;101082.69;4916611;29;20052;-86
2022/10/13 08:18:34;;;;;;;61.97;31.20;;;;;;;20.12;100.00;101078.38;4918279;29;20032;-90
2022/10/13 08:21:02;;;;;;;58.05;31.83;;;;;;;19.89;100.00;101080.69;4917264;29;20084;-85
2022/10/13 08:23:28;;;;;;;56.00;31.27;;;;;;;20.27;100.00;101080.03;4919117;29;20036;-88
2022/10/13 08:25:56;;;;;;;55.42;31.60;;;;;;;20.63;100.00;101083.00;4921379;29;20060;-88
2022/10/13 08:28:27;;;;;;;67.85;31.75;;;;;;;20.66;100.00;101096.03;4924918;29;20107;-87
2022/10/13 08:31:12;;;;;;;56.92;32.33;;;;;;;20.20;100.00;101080.03;4918596;29;20516;-90
2022/10/13 08:33:40;;;;;;;56.20;31.25;;;;;;;20.35;100.00;101080.63;4917399;29;20059;-87
2022/10/13 08:36:08;;;;;;;54.58;31.10;;;;;;;20.55;100.00;101075.97;4928692;29;20020;-89
2022/10/13 08:38:34;;;;;;;53.35;32.10;;;;;;;20.73;100.00;101083.38;4922896;29;20095;-90
2022/10/13 08:41:00;;;;;;;56.60;31.15;;;;;;;21.73;100.00;101085.19;4939452;29;20063;-90
2022/10/13 08:43:26;;;;;;;49.03;29.10;;;;;;;21.45;100.00;101084.81;4931654;29;20040;-88
2022/10/13 08:45:58;;;;;;;59.67;30.10;;;;;;;21.93;99.35;101090.44;4913527;29;20063;-89
2022/10/13 08:48:31;;;;;;;62.05;31.30;;;;;;;21.96;99.34;101085.44;4916891;29;20055;-87
2022/10/13 08:51:00;;;;;;;48.78;30.65;;;;;;;21.33;100.00;101094.66;4915099;29;20585;-88
2022/10/13 08:53:34;;;;;;;54.97;31.25;;;;;;;21.43;100.00;101079.66;4917607;29;20063;-90
2022/10/13 08:56:14;;;;;;;55.25;30.63;;;;;;;21.17;100.00;101069.06;4902958;29;20574;-89
2022/10/13 08:58:45;;;;;;;57.30;29.15;;;;;;;21.31;100.00;101081.38;4919729;29;20497;-87
2022/10/13 09:01:50;;;;;;;34.53;20.73;;;;;;;21.82;100.00;101073.06;4918914;29;20036;-88
2022/10/13 09:04:35;;;;;;;60.28;31.35;;;;;;;21.30;100.00;101071.66;4907447;29;20037;-90
2022/10/13 09:07:38;;;;;;;54.97;30.55;;;;;;;21.15;100.00;101071.13;4918509;29;20048;-87
2022/10/13 09:10:08;;;;;;;62.13;30.33;;;;;;;20.97;100.00;101063.75;4920419;29;20119;-89
2022/10/13 09:12:34;;;;;;;52.20;29.63;;;;;;;20.86;100.00;101061.75;4925417;29;20048;-86
2022/10/13 09:15:03;;;;;;;52.33;29.92;;;;;;;20.43;100.00;101064.25;4904519;29;20068;-89
2022/10/13 09:17:30;;;;;;;49.90;31.23;;;;;;;20.20;100.00;101054.97;4913649;29;20409;-87
2022/10/13 09:20:16;;;;;;;60.72;32.72;;;;;;;19.84;100.00;101058.16;4920638;29;20104;-87
2022/10/13 09:22:42;;;;;;;58.08;33.15;;;;;;;19.47;100.00;101052.41;4913826;29;20047;-92
2022/10/13 09:25:19;;;;;;;52.25;31.50;;;;;;;19.87;100.00;101046.97;4917493;29;20033;-87
2022/10/13 09:27:52;;;;;;;61.60;32.67;;;;;;;19.74;100.00;101039.75;4937860;29;20047;-89
2022/10/13 09:30:32;;;;;;;90.40;39.33;;;;;;;19.75;100.00;101049.50;4923995;29;20040;-90
2022/10/13 09:33:08;;;;;;;112.13;54.53;;;;;;;19.98;100.00;101047.19;4923965;29;20085;-87
2022/10/13 09:35:45;;;;;;;108.40;52.92;;;;;;;20.08;100.00;101036.78;4926509;29;20474;-90
2022/10/13 09:38:18;;;;;;;81.85;43.67;;;;;;;20.37;100.00;101040.03;4927447;29;20040;-89
2022/10/13 09:41:14;;;;;;;56.80;30.38;;;;;;;20.39;100.00;101032.56;4927609;29;20032;-89
2022/10/13 09:43:40;;;;;;;53.95;30.45;;;;;;;20.89;100.00;101037.06;4922101;29;20048;-86
2022/10/13 09:46:37;;;;;;;56.45;30.95;;;;;;;22.34;96.80;101035.78;4917317;29;20038;-86
2022/10/13 09:49:17;;;;;;;50.72;28.67;;;;;;;23.34;90.88;101047.66;4857190;29;20053;-89
2022/10/13 09:51:46;;;;;;;58.83;32.33;;;;;;;23.98;84.49;101036.78;4857260;29;20116;-88
2022/10/13 09:54:46;;;;;;;64.55;30.80;;;;;;;24.31;81.07;101049.72;4854602;29;20525;-87
2022/10/13 09:57:30;;;;;;;52.60;26.88;;;;;;;24.96;78.05;101050.19;4837566;29;20046;-85
2022/10/13 10:00:22;;;;;;;49.47;26.50;;;;;;;25.51;73.87;101049.53;4892180;29;20056;-86
2022/10/13 10:03:02;;;;;;;50.72;24.65;;;;;;;25.89;71.45;101048.72;4915975;29;20036;-81
2022/10/13 10:05:50;;;;;;;42.88;23.45;;;;;;;25.78;70.98;101058.63;4912801;29;20035;-86
2022/10/13 10:08:44;;;;;;;40.17;21.65;;;;;;;25.90;70.18;101039.50;4913430;29;20040;-84
2022/10/13 10:11:14;;;;;;;41.42;20.52;;;;;;;26.09;69.44;101038.13;4911603;29;20051;-83
2022/10/13 10:13:39;;;;;;;44.05;22.15;;;;;;;25.82;68.29;101032.59;4913762;29;20487;-83
2022/10/13 10:16:11;;;;;;;37.20;21.48;;;;;;;24.94;72.15;101022.50;4914578;29;20039;-88
2022/10/13 10:18:40;;;;;;;47.75;23.83;;;;;;;25.30;73.15;101020.38;4911917;29;20406;-85
2022/10/13 10:21:11;;;;;;;43.95;23.08;;;;;;;25.44;71.83;101013.56;4916788;29;20040;-87
2022/10/13 10:24:15;;;;;;;48.25;26.05;;;;;;;25.76;71.03;101011.88;4921767;29;20043;-84
2022/10/13 10:26:58;;;;;;;38.13;23.27;;;;;;;25.49;71.66;101022.59;4901709;29;20047;-83
2022/10/13 10:29:39;;;;;;;42.92;23.10;;;;;;;24.57;73.69;101007.66;4909696;29;20048;-84
2022/10/13 10:32:27;;;;;;;41.38;23.50;;;;;;;23.81;77.83;100995.25;4922574;29;20047;-85
2022/10/13 10:34:59;;;;;;;47.17;22.17;;;;;;;22.98;81.61;101006.22;4917535;29;20047;-84
2022/10/13 10:37:42;;;;;;;38.28;22.48;;;;;;;22.85;84.04;101008.31;4916295;29;20040;-87
2022/10/13 10:40:20;;;;;;;39.78;21.10;;;;;;;22.61;84.18;101001.97;4918726;29;20115;-87
2022/10/13 10:42:58;;;;;;;38.50;22.65;;;;;;;22.46;84.60;100993.44;4919908;29;20047;-87
2022/10/13 10:48:06;;;;;;;44.47;21.75;;;;;;;22.35;84.56;100983.41;4900872;26;20048;-87
2022/10/13 10:50:35;;;;;;;37.03;20.33;;;;;;;22.26;83.79;100982.09;4932288;29;20044;-84
2022/10/13 10:53:15;;;;;;;42.05;21.52;;;;;;;22.09;85.16;100982.69;4933784;29;20061;-86
2022/10/13 10:56:19;;;;;;;42.17;21.63;;;;;;;21.91;87.55;100966.50;4920158;29;20106;-88
2022/10/13 10:59:15;;;;;;;40.38;20.15;;;;;;;22.17;86.05;100978.06;4923458;29;20056;-89
2022/10/13 11:02:10;;;;;;;36.08;20.88;;;;;;;22.17;85.03;100968.88;4895017;29;20052;-87
2022/10/13 11:04:40;;;;;;;34.85;19.90;;;;;;;21.95;85.49;100962.31;4921004;29;20075;-87
2022/10/13 11:07:33;;;;;;;39.42;21.77;;;;;;;22.04;85.69;100962.84;4918294;29;20068;-88
2022/10/13 11:09:58;;;;;;;37.03;20.60;;;;;;;22.34;83.67;100952.88;4932365;29;20068;-89
2022/10/13 11:12:52;;;;;;;44.53;19.45;;;;;;;22.14;83.33;100953.13;4937000;29;20524;-87
2022/10/13 11:15:43;;;;;;;36.80;19.17;;;;;;;22.43;80.15;100951.53;4936467;29;20039;-86
2022/10/13 11:18:46;;;;;;;39.53;20.08;;;;;;;21.99;83.86;100939.22;4936452;29;20050;-88
2022/10/13 11:21:12;;;;;;;36.25;21.75;;;;;;;21.96;85.52;100934.28;4940959;29;20482;-87
2022/10/13 11:23:44;;;;;;;38.70;22.25;;;;;;;22.05;85.36;100932.91;4943883;29;20028;-88
2022/10/13 11:26:31;;;;;;;34.67;21.08;;;;;;;22.49;82.68;100929.00;4958089;29;20027;-86
2022/10/13 11:28:57;;;;;;;39.90;21.30;;;;;;;22.61;81.35;100926.31;4959913;29;20024;-87